Time;durP1;ratioP1;P1;durP2;ratioP2;P2;SDS_P1;SDS_P2;PMS_P1;PMS_P2;Temp;Humidity;BMP_temperature;BMP_pressure;BME280_temperature;BME280_humidity;BME280_pressure;Samples;Min_cycle;Max_cycle;Signal;HPM_P1;HPM_P2
2023/08/20 00:01:26;;;;;;;36.83;32.47;;;;;;;;;;4931379;29;20193;-75
2023/08/20 00:03:54;;;;;;;31.63;27.77;;;;;;;;;;4895249;29;20199;-75
2023/08/20 00:06:21;;;;;;;34.70;28.83;;;;;;;;;;4916217;29;21043;-75
2023/08/20 00:08:51;;;;;;;39.23;29.67;;;;;;;;;;4930763;29;20201;-76
2023/08/20 00:11:18;;;;;;;31.13;26.03;;;;;;;;;;4932162;29;20618;-76
2023/08/20 00:13:45;;;;;;;33.60;27.80;;;;;;;;;;4914733;29;20250;-76
2023/08/20 00:16:12;;;;;;;33.37;27.97;;;;;;;;;;4931394;29;20199;-76
2023/08/20 00:18:40;;;;;;;30.77;26.97;;;;;;;;;;4930836;29;20696;-76
2023/08/20 00:21:09;;;;;;;30.20;26.63;;;;;;;;;;4915451;29;20615;-76
2023/08/20 00:23:37;;;;;;;36.50;32.43;;;;;;;;;;4929698;29;20198;-75
2023/08/20 00:26:04;;;;;;;40.50;32.70;;;;;;;;;;4930557;29;20287;-76
2023/08/20 00:28:38;;;;;;;36.67;32.67;;;;;;;;;;4917431;29;20198;-76
2023/08/20 00:31:05;;;;;;;38.30;34.00;;;;;;;;;;4929222;29;20321;-76
2023/08/20 00:33:32;;;;;;;36.80;32.27;;;;;;;;;;4911577;29;20293;-76
2023/08/20 00:36:00;;;;;;;34.53;30.87;;;;;;;;;;4911574;29;20258;-76
2023/08/20 00:38:44;;;;;;;35.23;31.50;;;;;;;;;;4928361;29;20184;-77
2023/08/20 00:41:11;;;;;;;37.10;31.70;;;;;;;;;;4940152;29;21057;-77
2023/08/20 00:43:38;;;;;;;37.87;33.37;;;;;;;;;;4927211;29;20263;-76
2023/08/20 00:46:05;;;;;;;35.80;31.57;;;;;;;;;;4913368;29;20195;-77
2023/08/20 00:48:33;;;;;;;36.57;31.20;;;;;;;;;;4927228;29;20241;-78
2023/08/20 00:51:01;;;;;;;87.90;33.40;;;;;;;;;;4926293;28;20626;-76
2023/08/20 00:53:28;;;;;;;33.10;28.20;;;;;;;;;;4927178;29;20223;-76
2023/08/20 00:55:55;;;;;;;30.23;27.07;;;;;;;;;;4914913;29;20204;-76
2023/08/20 00:58:22;;;;;;;33.43;27.37;;;;;;;;;;4927941;29;20221;-76
2023/08/20 01:00:50;;;;;;;28.97;25.87;;;;;;;;;;4925129;29;20203;-76
2023/08/20 01:03:17;;;;;;;29.03;25.73;;;;;;;;;;4926137;29;20714;-77
2023/08/20 01:05:47;;;;;;;30.47;27.20;;;;;;;;;;4928768;29;20688;-76
2023/08/20 01:08:23;;;;;;;28.30;25.30;;;;;;;;;;4928489;29;20203;-76
2023/08/20 01:46:37;;;;;;;26.00;22.60;;;;;;;;;;4913908;29;20262;-77
2023/08/20 01:49:05;;;;;;;26.43;23.63;;;;;;;;;;4916351;29;20205;-76
2023/08/20 01:51:32;;;;;;;26.33;22.60;;;;;;;;;;4924749;29;20223;-76
2023/08/20 01:53:59;;;;;;;29.00;25.57;;;;;;;;;;4916886;29;20191;-77
2023/08/20 01:56:27;;;;;;;35.97;27.57;;;;;;;;;;4932504;29;20198;-76
2023/08/20 01:58:56;;;;;;;33.20;26.67;;;;;;;;;;4914990;29;20204;-77
2023/08/20 02:01:24;;;;;;;31.17;27.73;;;;;;;;;;4929929;29;20196;-77
2023/08/20 02:03:52;;;;;;;32.40;24.93;;;;;;;;;;4934579;29;20207;-76
2023/08/20 02:06:20;;;;;;;27.83;24.73;;;;;;;;;;4916675;29;20261;-76
2023/08/20 02:08:48;;;;;;;26.80;23.97;;;;;;;;;;4916178;29;20197;-77
2023/08/20 02:11:35;;;;;;;26.00;22.50;;;;;;;;;;4933353;29;20218;-76
2023/08/20 02:14:03;;;;;;;26.20;23.40;;;;;;;;;;4929972;29;20230;-77
2023/08/20 02:16:32;;;;;;;24.87;22.27;;;;;;;;;;4914300;29;20223;-76
2023/08/20 02:19:02;;;;;;;25.37;22.67;;;;;;;;;;4927849;29;20706;-76
2023/08/20 02:21:29;;;;;;;24.90;22.27;;;;;;;;;;4916112;29;20202;-76
2023/08/20 02:23:56;;;;;;;25.93;21.90;;;;;;;;;;4928455;29;20203;-77
2023/08/20 02:26:23;;;;;;;27.37;23.00;;;;;;;;;;4923804;29;20206;-77
2023/08/20 02:28:50;;;;;;;27.50;24.60;;;;;;;;;;4901785;29;20207;-76
2023/08/20 02:31:18;;;;;;;28.50;24.50;;;;;;;;;;4933978;29;20230;-77
2023/08/20 02:33:47;;;;;;;24.03;21.63;;;;;;;;;;4931454;29;20332;-76
2023/08/20 02:36:13;;;;;;;26.10;23.30;;;;;;;;;;4927794;29;20191;-77
2023/08/20 02:38:41;;;;;;;24.87;22.27;;;;;;;;;;4916643;29;20603;-77
2023/08/20 02:41:08;;;;;;;24.87;21.60;;;;;;;;;;4931770;29;20195;-77
2023/08/20 02:43:35;;;;;;;24.17;21.73;;;;;;;;;;4932741;28;20666;-76
2023/08/20 02:46:03;;;;;;;23.13;20.70;;;;;;;;;;4916632;29;20682;-76
2023/08/20 02:48:33;;;;;;;29.80;26.70;;;;;;;;;;4948052;28;20698;-76
2023/08/20 02:51:02;;;;;;;24.83;22.20;;;;;;;;;;4933512;29;20270;-76
2023/08/20 02:53:29;;;;;;;23.27;20.43;;;;;;;;;;4924718;29;20400;-76
2023/08/20 02:55:57;;;;;;;22.60;20.27;;;;;;;;;;4933082;29;20245;-76
2023/08/20 02:58:23;;;;;;;26.43;20.50;;;;;;;;;;4929409;29;20196;-76
2023/08/20 03:00:51;;;;;;;25.33;22.63;;;;;;;;;;4924243;29;20203;-76
2023/08/20 03:03:21;;;;;;;25.97;23.17;;;;;;;;;;4934364;29;20203;-77
2023/08/20 03:05:49;;;;;;;26.87;23.97;;;;;;;;;;4914563;29;20191;-77
2023/08/20 03:08:33;;;;;;;28.30;24.30;;;;;;;;;;4931302;29;20194;-77
2023/08/20 03:11:00;;;;;;;27.27;23.97;;;;;;;;;;4930404;29;20278;-77
2023/08/20 03:13:27;;;;;;;22.53;20.13;;;;;;;;;;4917995;29;20199;-76
2023/08/20 03:15:55;;;;;;;21.33;18.80;;;;;;;;;;4926380;29;20211;-77
2023/08/20 03:18:23;;;;;;;21.50;19.27;;;;;;;;;;4931750;29;20214;-76
2023/08/20 03:21:10;;;;;;;21.43;18.07;;;;;;;;;;4924618;29;20184;-76
2023/08/20 03:23:37;;;;;;;21.87;19.20;;;;;;;;;;4931648;29;20286;-76
2023/08/20 03:26:21;;;;;;;24.90;19.63;;;;;;;;;;4925053;29;20176;-76
2023/08/20 03:28:49;;;;;;;22.57;20.20;;;;;;;;;;4928732;29;20541;-76
2023/08/20 03:31:33;;;;;;;20.53;18.40;;;;;;;;;;4913756;29;20302;-76
2023/08/20 03:34:03;;;;;;;20.10;18.10;;;;;;;;;;4914098;29;20191;-78
2023/08/20 03:36:32;;;;;;;21.83;19.50;;;;;;;;;;4920628;29;20206;-77
2023/08/20 03:39:01;;;;;;;21.63;19.33;;;;;;;;;;4927603;29;20529;-77
2023/08/20 03:41:28;;;;;;;20.10;18.00;;;;;;;;;;4915321;29;20317;-77
2023/08/20 03:44:14;;;;;;;22.33;19.30;;;;;;;;;;4928551;29;20330;-76
2023/08/20 03:46:41;;;;;;;22.83;19.63;;;;;;;;;;4909989;29;20199;-77
2023/08/20 03:49:08;;;;;;;24.10;21.60;;;;;;;;;;4928380;29;20238;-77
2023/08/20 03:51:39;;;;;;;22.50;20.10;;;;;;;;;;4911591;29;20227;-78
2023/08/20 03:54:07;;;;;;;22.03;19.23;;;;;;;;;;4941061;29;20615;-77
2023/08/20 03:56:34;;;;;;;21.33;19.03;;;;;;;;;;4900674;29;20732;-77
2023/08/20 03:59:01;;;;;;;23.17;20.67;;;;;;;;;;4911750;29;20263;-77
2023/08/20 04:01:29;;;;;;;22.07;19.40;;;;;;;;;;4915996;29;20246;-77
2023/08/20 04:03:57;;;;;;;25.13;22.43;;;;;;;;;;4912754;29;20285;-77
2023/08/20 04:06:25;;;;;;;23.50;21.10;;;;;;;;;;4918332;29;20266;-78
2023/08/20 04:08:52;;;;;;;24.70;22.20;;;;;;;;;;4912032;29;20279;-77
2023/08/20 04:11:38;;;;;;;24.63;22.20;;;;;;;;;;4924110;29;20587;-79
2023/08/20 04:14:06;;;;;;;27.00;24.10;;;;;;;;;;4931137;29;20195;-77
2023/08/20 04:16:36;;;;;;;28.30;25.30;;;;;;;;;;4911883;29;20188;-78
2023/08/20 04:19:04;;;;;;;30.13;26.93;;;;;;;;;;4909653;29;20258;-77
2023/08/20 04:21:31;;;;;;;24.73;22.03;;;;;;;;;;4916945;29;20282;-77
2023/08/20 04:23:59;;;;;;;25.87;21.53;;;;;;;;;;4927344;29;20285;-77
2023/08/20 04:26:28;;;;;;;22.77;20.30;;;;;;;;;;4941776;29;20202;-77
2023/08/20 04:28:56;;;;;;;21.47;19.17;;;;;;;;;;4911292;29;20263;-77
2023/08/20 04:31:23;;;;;;;20.63;18.50;;;;;;;;;;4904828;29;20215;-76
2023/08/20 04:34:01;;;;;;;20.87;18.30;;;;;;;;;;4926243;29;20195;-77
2023/08/20 04:36:51;;;;;;;21.30;18.97;;;;;;;;;;4907523;29;20258;-77
2023/08/20 04:39:19;;;;;;;26.87;19.57;;;;;;;;;;4905087;29;20230;-79
2023/08/20 04:42:05;;;;;;;21.93;19.60;;;;;;;;;;4924437;29;20199;-74
2023/08/20 04:44:33;;;;;;;21.40;19.17;;;;;;;;;;4923498;29;20286;-83
2023/08/20 04:47:18;;;;;;;21.73;19.63;;;;;;;;;;4921958;29;20226;-77
2023/08/20 04:49:45;;;;;;;21.87;19.67;;;;;;;;;;4909812;29;20559;-75
2023/08/20 04:52:14;;;;;;;20.70;18.43;;;;;;;;;;4926889;29;20230;-77
2023/08/20 04:54:41;;;;;;;22.47;20.23;;;;;;;;;;4935409;29;20199;-76
2023/08/20 04:57:11;;;;;;;21.30;19.17;;;;;;;;;;4922178;29;20294;-78
2023/08/20 04:59:39;;;;;;;20.30;18.20;;;;;;;;;;4916176;29;20198;-75
2023/08/20 05:02:24;;;;;;;22.83;20.53;;;;;;;;;;4929091;29;20217;-75
2023/08/20 05:04:58;;;;;;;23.87;21.43;;;;;;;;;;4929649;29;20207;-73
2023/08/20 05:07:25;;;;;;;27.03;24.10;;;;;;;;;;4931410;29;20793;-76
2023/08/20 05:09:53;;;;;;;29.97;26.93;;;;;;;;;;4909182;29;20230;-75
2023/08/20 05:12:20;;;;;;;32.23;28.77;;;;;;;;;;4933100;28;20322;-76
2023/08/20 05:14:48;;;;;;;25.97;22.07;;;;;;;;;;4916173;29;20207;-75
2023/08/20 05:17:16;;;;;;;24.83;21.83;;;;;;;;;;4926728;29;20198;-76
2023/08/20 05:19:43;;;;;;;25.70;22.03;;;;;;;;;;4922909;29;20198;-75
2023/08/20 05:22:11;;;;;;;23.90;21.23;;;;;;;;;;4909694;29;20832;-74
2023/08/20 05:24:39;;;;;;;23.60;20.53;;;;;;;;;;4903197;29;20210;-74
2023/08/20 05:27:07;;;;;;;22.40;20.20;;;;;;;;;;4931141;29;20227;-76
2023/08/20 05:29:35;;;;;;;21.27;19.13;;;;;;;;;;4930928;29;20206;-78
2023/08/20 05:32:04;;;;;;;21.77;19.57;;;;;;;;;;4929482;29;20222;-77
2023/08/20 05:34:31;;;;;;;22.20;19.97;;;;;;;;;;4929959;29;20206;-76
2023/08/20 05:36:58;;;;;;;20.60;18.50;;;;;;;;;;4906320;29;20250;-76
2023/08/20 05:39:29;;;;;;;22.10;20.00;;;;;;;;;;4929964;29;20222;-77
2023/08/20 05:41:56;;;;;;;22.47;18.40;;;;;;;;;;4930591;29;20203;-77
2023/08/20 05:44:25;;;;;;;21.00;18.87;;;;;;;;;;4927525;29;20677;-75
2023/08/20 05:47:13;;;;;;;22.13;19.90;;;;;;;;;;4933473;29;20246;-76
2023/08/20 05:49:41;;;;;;;21.83;19.57;;;;;;;;;;4914033;29;20203;-75
2023/08/20 05:52:11;;;;;;;18.57;16.77;;;;;;;;;;4926784;29;20266;-74
2023/08/20 05:54:39;;;;;;;18.77;16.97;;;;;;;;;;4915675;29;20202;-75
2023/08/20 05:57:05;;;;;;;19.57;17.47;;;;;;;;;;4930269;29;20739;-74
2023/08/20 05:59:33;;;;;;;18.03;16.30;;;;;;;;;;4920477;29;20207;-75
2023/08/20 06:02:01;;;;;;;18.60;16.87;;;;;;;;;;4947293;28;20198;-75
2023/08/20 06:04:29;;;;;;;19.50;17.60;;;;;;;;;;4946933;29;20206;-76
2023/08/20 06:06:58;;;;;;;19.60;17.70;;;;;;;;;;4931988;29;20670;-76
2023/08/20 06:09:25;;;;;;;18.97;17.17;;;;;;;;;;4942445;29;20184;-75
2023/08/20 06:11:52;;;;;;;19.10;17.23;;;;;;;;;;4932853;29;20306;-77
2023/08/20 06:14:19;;;;;;;19.73;17.73;;;;;;;;;;4933367;29;20214;-78
2023/08/20 06:16:47;;;;;;;19.17;17.27;;;;;;;;;;4934071;29;20234;-77
2023/08/20 06:19:15;;;;;;;20.10;18.20;;;;;;;;;;4946034;29;20194;-76
2023/08/20 06:21:43;;;;;;;19.07;17.27;;;;;;;;;;4926531;29;20784;-77
2023/08/20 06:24:11;;;;;;;20.07;17.97;;;;;;;;;;4921300;29;20286;-78
2023/08/20 06:26:43;;;;;;;21.50;19.40;;;;;;;;;;4922091;29;20234;-78
2023/08/20 06:29:14;;;;;;;19.50;17.60;;;;;;;;;;4924485;29;20620;-78
2023/08/20 06:31:42;;;;;;;16.47;15.00;;;;;;;;;;4915236;29;20219;-79
2023/08/20 06:34:17;;;;;;;17.97;15.93;;;;;;;;;;4944747;29;20223;-79
2023/08/20 06:36:48;;;;;;;15.80;14.43;;;;;;;;;;4914325;29;20208;-79
2023/08/20 06:39:16;;;;;;;15.83;14.23;;;;;;;;;;4886002;29;20210;-72
2023/08/20 06:41:43;;;;;;;17.13;14.80;;;;;;;;;;4931190;29;20302;-72
2023/08/20 06:44:31;;;;;;;15.43;13.77;;;;;;;;;;4930250;29;20182;-72
2023/08/20 06:47:02;;;;;;;16.33;14.67;;;;;;;;;;4929569;29;20238;-78
2023/08/20 06:49:30;;;;;;;14.50;13.20;;;;;;;;;;4913233;29;20673;-80
2023/08/20 06:52:04;;;;;;;13.83;12.50;;;;;;;;;;4913296;29;20223;-79
2023/08/20 06:54:33;;;;;;;15.67;12.87;;;;;;;;;;4933707;28;20301;-79
2023/08/20 06:57:18;;;;;;;14.97;13.57;;;;;;;;;;4913755;29;20183;-78
2023/08/20 06:59:49;;;;;;;17.37;15.53;;;;;;;;;;4904571;29;20198;-79
2023/08/20 07:02:18;;;;;;;15.13;13.63;;;;;;;;;;4925457;29;20627;-80
2023/08/20 07:04:55;;;;;;;14.37;12.97;;;;;;;;;;4935842;29;20663;-79
2023/08/20 07:07:25;;;;;;;13.37;12.17;;;;;;;;;;4915349;29;20591;-81
2023/08/20 07:09:59;;;;;;;13.13;11.57;;;;;;;;;;4913055;29;20195;-78
2023/08/20 07:12:27;;;;;;;13.17;11.93;;;;;;;;;;4912557;29;20690;-80
2023/08/20 07:14:54;;;;;;;12.60;11.40;;;;;;;;;;4926116;29;20669;-80
2023/08/20 07:17:21;;;;;;;13.03;11.77;;;;;;;;;;4915469;29;20190;-82
2023/08/20 07:19:48;;;;;;;12.63;11.23;;;;;;;;;;4941019;29;20205;-82
2023/08/20 07:22:16;;;;;;;12.23;11.13;;;;;;;;;;4931368;29;20675;-82
2023/08/20 07:24:47;;;;;;;11.73;10.63;;;;;;;;;;4930915;29;20594;-81
2023/08/20 07:27:15;;;;;;;11.33;10.33;;;;;;;;;;4930587;29;20191;-82
2023/08/20 07:29:42;;;;;;;12.30;11.20;;;;;;;;;;4929739;29;20206;-82
2023/08/20 07:32:09;;;;;;;11.57;10.57;;;;;;;;;;4925531;29;20266;-82
2023/08/20 07:34:40;;;;;;;12.20;10.50;;;;;;;;;;4922455;29;20277;-82
2023/08/20 07:37:08;;;;;;;12.20;10.97;;;;;;;;;;4929188;29;20278;-81
2023/08/20 07:39:36;;;;;;;11.37;10.27;;;;;;;;;;4930960;29;20233;-82
2023/08/20 07:42:03;;;;;;;13.77;10.17;;;;;;;;;;4925368;29;20187;-82
2023/08/20 07:44:30;;;;;;;12.10;11.00;;;;;;;;;;4913730;29;20199;-83
2023/08/20 07:46:57;;;;;;;11.47;10.33;;;;;;;;;;4903103;29;20580;-83
2023/08/20 07:49:24;;;;;;;11.40;10.30;;;;;;;;;;4919147;29;20210;-85
2023/08/20 07:51:52;;;;;;;11.27;10.23;;;;;;;;;;4924900;29;20686;-84
2023/08/20 07:54:19;;;;;;;14.03;10.90;;;;;;;;;;4913133;29;20199;-85
2023/08/20 07:56:46;;;;;;;11.27;10.17;;;;;;;;;;4914418;29;20215;-84
2023/08/20 07:59:14;;;;;;;11.70;10.60;;;;;;;;;;4915167;29;20186;-85
2023/08/20 08:01:43;;;;;;;11.47;10.37;;;;;;;;;;4917981;29;20234;-84
2023/08/20 08:04:14;;;;;;;11.43;10.43;;;;;;;;;;4939684;29;20554;-85
2023/08/20 08:06:41;;;;;;;12.30;10.00;;;;;;;;;;4933588;29;20195;-85
2023/08/20 08:09:18;;;;;;;11.30;10.13;;;;;;;;;;4929867;29;20201;-85
2023/08/20 08:11:46;;;;;;;10.67;9.67;;;;;;;;;;4921692;29;20301;-85
2023/08/20 08:14:14;;;;;;;11.80;10.60;;;;;;;;;;4920679;29;20680;-85
2023/08/20 08:16:42;;;;;;;11.53;10.43;;;;;;;;;;4913465;29;20198;-84
2023/08/20 08:19:16;;;;;;;11.50;10.37;;;;;;;;;;4925040;29;20799;-88
2023/08/20 08:21:51;;;;;;;11.47;10.40;;;;;;;;;;4925476;29;20859;-86
2023/08/20 08:24:22;;;;;;;11.33;10.23;;;;;;;;;;4909644;29;20417;-82
2023/08/20 08:26:56;;;;;;;14.33;10.17;;;;;;;;;;4923723;29;20566;-84
2023/08/20 08:29:23;;;;;;;10.70;9.70;;;;;;;;;;4901064;29;20294;-83
2023/08/20 08:31:50;;;;;;;11.43;10.30;;;;;;;;;;4919853;29;20214;-80
2023/08/20 08:34:18;;;;;;;11.23;9.40;;;;;;;;;;4931512;29;20191;-79
2023/08/20 08:36:47;;;;;;;10.40;9.60;;;;;;;;;;4931652;29;20191;-77
2023/08/20 08:39:15;;;;;;;11.80;9.87;;;;;;;;;;4923103;29;20614;-79
2023/08/20 08:41:42;;;;;;;10.73;9.73;;;;;;;;;;4912526;29;20754;-78
2023/08/20 08:44:10;;;;;;;11.67;9.90;;;;;;;;;;4903340;29;20191;-76
2023/08/20 08:46:38;;;;;;;10.23;9.33;;;;;;;;;;4936552;29;20186;-75
2023/08/20 08:49:08;;;;;;;10.67;9.57;;;;;;;;;;4931163;29;20197;-75
2023/08/20 08:51:36;;;;;;;11.33;10.23;;;;;;;;;;4930602;29;20194;-75
2023/08/20 08:54:03;;;;;;;10.70;9.80;;;;;;;;;;4930813;29;20218;-75
2023/08/20 08:56:30;;;;;;;10.50;9.50;;;;;;;;;;4933482;29;20239;-77
2023/08/20 08:59:15;;;;;;;11.70;10.63;;;;;;;;;;4931642;29;20249;-78
2023/08/20 09:01:42;;;;;;;11.10;10.10;;;;;;;;;;4945979;29;20214;-69
2023/08/20 09:04:27;;;;;;;12.83;10.00;;;;;;;;;;4927151;29;20270;-68
2023/08/20 09:06:55;;;;;;;12.20;9.93;;;;;;;;;;4917477;29;20198;-70
2023/08/20 09:09:23;;;;;;;11.50;10.43;;;;;;;;;;4916540;29;20203;-71
2023/08/20 09:11:50;;;;;;;10.90;9.90;;;;;;;;;;4921446;29;20262;-69
2023/08/20 09:14:27;;;;;;;12.03;9.20;;;;;;;;;;4929717;29;20205;-69
2023/08/20 09:16:55;;;;;;;11.73;10.67;;;;;;;;;;4917837;29;20258;-69
2023/08/20 09:19:22;;;;;;;11.47;10.47;;;;;;;;;;4931109;29;20203;-69
2023/08/20 09:21:52;;;;;;;28.60;11.23;;;;;;;;;;4930117;29;20219;-69
2023/08/20 09:24:25;;;;;;;18.63;10.33;;;;;;;;;;4931124;29;20283;-69
2023/08/20 09:26:56;;;;;;;11.70;10.53;;;;;;;;;;4929613;29;20607;-68
2023/08/20 09:29:24;;;;;;;14.53;9.93;;;;;;;;;;4945045;29;20207;-70
2023/08/20 09:31:51;;;;;;;10.77;9.77;;;;;;;;;;4929814;29;20187;-69
2023/08/20 09:34:18;;;;;;;13.90;10.33;;;;;;;;;;4923476;29;20570;-68
2023/08/20 09:36:44;;;;;;;13.50;10.73;;;;;;;;;;4933275;29;20741;-68
2023/08/20 09:39:11;;;;;;;37.77;13.17;;;;;;;;;;4932633;29;20309;-68
2023/08/20 09:41:38;;;;;;;12.40;11.20;;;;;;;;;;4922697;29;20222;-69
2023/08/20 09:44:05;;;;;;;12.87;10.90;;;;;;;;;;4933072;29;20195;-69
2023/08/20 09:46:32;;;;;;;10.77;9.87;;;;;;;;;;4933528;29;20286;-68
2023/08/20 09:49:00;;;;;;;11.43;10.43;;;;;;;;;;4943524;29;20251;-68
2023/08/20 09:51:44;;;;;;;17.07;10.87;;;;;;;;;;4915302;29;20587;-68
2023/08/20 09:54:13;;;;;;;11.57;10.50;;;;;;;;;;4924740;29;20200;-68
2023/08/20 09:56:40;;;;;;;19.10;11.50;;;;;;;;;;4932565;29;20250;-68
2023/08/20 09:59:08;;;;;;;15.87;11.40;;;;;;;;;;4933069;29;20191;-67
2023/08/20 10:01:35;;;;;;;11.77;10.07;;;;;;;;;;4945993;29;20281;-69
2023/08/20 10:04:19;;;;;;;11.40;10.40;;;;;;;;;;4945050;28;20185;-68
2023/08/20 10:06:46;;;;;;;11.50;10.33;;;;;;;;;;4944164;29;20690;-68
2023/08/20 10:09:30;;;;;;;11.93;10.73;;;;;;;;;;4962156;28;20200;-68
2023/08/20 10:11:57;;;;;;;11.90;10.73;;;;;;;;;;4936023;29;20241;-68
2023/08/20 10:14:24;;;;;;;12.83;11.70;;;;;;;;;;4922441;29;20218;-68
2023/08/20 10:16:52;;;;;;;19.60;11.23;;;;;;;;;;4940119;29;20993;-68
2023/08/20 10:19:20;;;;;;;10.83;9.93;;;;;;;;;;4946807;29;20585;-68
2023/08/20 10:21:47;;;;;;;11.67;10.67;;;;;;;;;;4935359;28;20273;-68
2023/08/20 10:24:20;;;;;;;12.27;10.97;;;;;;;;;;4938800;29;20202;-68
2023/08/20 10:26:48;;;;;;;14.83;10.57;;;;;;;;;;4942505;28;20195;-68
2023/08/20 10:29:34;;;;;;;11.17;10.07;;;;;;;;;;4932072;29;20199;-68
2023/08/20 10:32:19;;;;;;;11.30;10.20;;;;;;;;;;4939321;29;20237;-68
2023/08/20 10:34:50;;;;;;;12.13;10.67;;;;;;;;;;4940575;29;20296;-68
2023/08/20 10:37:18;;;;;;;18.83;10.77;;;;;;;;;;4947498;29;20201;-68
2023/08/20 10:39:46;;;;;;;13.37;10.60;;;;;;;;;;4925160;29;20198;-68
2023/08/20 10:42:20;;;;;;;12.13;10.07;;;;;;;;;;4922955;28;20288;-68
2023/08/20 10:45:00;;;;;;;13.67;11.27;;;;;;;;;;4929750;29;20674;-69
2023/08/20 10:47:37;;;;;;;38.00;11.03;;;;;;;;;;4947028;28;20226;-68
2023/08/20 10:50:05;;;;;;;14.57;10.60;;;;;;;;;;4935253;29;20222;-68
2023/08/20 10:52:33;;;;;;;13.20;10.30;;;;;;;;;;4943819;28;20686;-70
2023/08/20 10:54:59;;;;;;;10.67;9.50;;;;;;;;;;4933999;29;20199;-71
2023/08/20 10:57:32;;;;;;;11.50;10.40;;;;;;;;;;4942061;29;20171;-71
2023/08/20 11:00:00;;;;;;;10.80;9.80;;;;;;;;;;4911468;29;20195;-71
2023/08/20 11:02:27;;;;;;;10.90;9.83;;;;;;;;;;4929710;29;20542;-71
2023/08/20 11:04:54;;;;;;;60.03;16.40;;;;;;;;;;4938961;29;20209;-71
2023/08/20 11:07:21;;;;;;;11.67;10.37;;;;;;;;;;4946250;29;20194;-72
2023/08/20 11:10:06;;;;;;;11.63;10.50;;;;;;;;;;4917600;29;20206;-71
2023/08/20 11:12:33;;;;;;;11.73;10.67;;;;;;;;;;4930125;29;20213;-71
2023/08/20 11:15:02;;;;;;;12.53;11.53;;;;;;;;;;4905115;29;20212;-70
2023/08/20 11:17:30;;;;;;;11.57;10.57;;;;;;;;;;4932301;29;20191;-70
2023/08/20 11:19:57;;;;;;;10.80;9.87;;;;;;;;;;4934242;29;20190;-70
2023/08/20 11:22:36;;;;;;;11.47;10.27;;;;;;;;;;4940782;29;20733;-70
2023/08/20 11:25:04;;;;;;;12.30;11.20;;;;;;;;;;4944635;29;20265;-70
2023/08/20 11:27:31;;;;;;;11.90;10.67;;;;;;;;;;4935695;28;20195;-68
2023/08/20 11:29:59;;;;;;;12.43;11.13;;;;;;;;;;4936110;28;20243;-70
2023/08/20 11:32:26;;;;;;;12.03;10.80;;;;;;;;;;4942099;28;20277;-71
2023/08/20 11:34:54;;;;;;;12.37;11.23;;;;;;;;;;4932091;29;20310;-70
2023/08/20 11:37:22;;;;;;;14.07;10.50;;;;;;;;;;4945934;29;20190;-70
2023/08/20 11:39:49;;;;;;;11.23;10.10;;;;;;;;;;4935187;28;20278;-73
2023/08/20 11:42:16;;;;;;;10.70;9.80;;;;;;;;;;4933872;28;20248;-72
2023/08/20 11:44:45;;;;;;;10.97;9.87;;;;;;;;;;4933758;29;20266;-75
2023/08/20 11:47:15;;;;;;;10.97;9.97;;;;;;;;;;4929721;29;20238;-75
2023/08/20 11:49:43;;;;;;;13.13;10.30;;;;;;;;;;4938699;29;20201;-75
2023/08/20 11:52:12;;;;;;;11.20;10.20;;;;;;;;;;4960411;28;20283;-74
2023/08/20 11:54:39;;;;;;;10.53;9.53;;;;;;;;;;4932772;29;20194;-74
2023/08/20 11:57:24;;;;;;;11.17;10.17;;;;;;;;;;4947836;28;20178;-75
2023/08/20 11:59:50;;;;;;;9.90;9.00;;;;;;;;;;4915059;29;20256;-74
2023/08/20 12:02:24;;;;;;;11.13;9.97;;;;;;;;;;4919334;29;20195;-75
2023/08/20 12:05:06;;;;;;;12.10;10.83;;;;;;;;;;4913608;29;20188;-76
2023/08/20 12:07:32;;;;;;;12.27;11.07;;;;;;;;;;4912175;29;21122;-76
2023/08/20 12:10:10;;;;;;;12.00;10.80;;;;;;;;;;4925865;29;20234;-75
2023/08/20 12:12:37;;;;;;;12.50;10.77;;;;;;;;;;4927385;29;20247;-75
2023/08/20 12:15:05;;;;;;;13.53;10.73;;;;;;;;;;4921826;29;20573;-74
2023/08/20 12:17:32;;;;;;;12.60;11.50;;;;;;;;;;4916454;29;20191;-74
2023/08/20 12:20:17;;;;;;;12.30;10.23;;;;;;;;;;4910500;29;20337;-74
2023/08/20 12:22:45;;;;;;;12.23;10.70;;;;;;;;;;4914321;29;20555;-73
2023/08/20 12:25:12;;;;;;;14.63;11.57;;;;;;;;;;4920931;29;20246;-73
2023/08/20 12:27:39;;;;;;;14.23;11.60;;;;;;;;;;4929137;29;20703;-72
2023/08/20 12:30:07;;;;;;;12.77;10.37;;;;;;;;;;4924179;29;20258;-72
2023/08/20 12:32:34;;;;;;;11.43;10.43;;;;;;;;;;4927141;28;20731;-72
2023/08/20 12:35:02;;;;;;;11.80;10.57;;;;;;;;;;4922722;29;20195;-71
2023/08/20 12:37:29;;;;;;;12.13;11.13;;;;;;;;;;4929576;29;20195;-71
2023/08/20 12:39:56;;;;;;;11.63;10.63;;;;;;;;;;4934381;29;20214;-71
2023/08/20 12:42:25;;;;;;;11.23;10.23;;;;;;;;;;4925200;29;20193;-72
2023/08/20 12:44:52;;;;;;;11.93;10.73;;;;;;;;;;4929917;28;20242;-72
2023/08/20 12:47:19;;;;;;;19.20;13.37;;;;;;;;;;4932322;29;20265;-71
2023/08/20 12:49:46;;;;;;;18.30;12.43;;;;;;;;;;4946943;29;20289;-72
2023/08/20 12:52:13;;;;;;;18.87;13.03;;;;;;;;;;4927088;29;20619;-77
2023/08/20 12:54:40;;;;;;;15.80;11.53;;;;;;;;;;4920872;29;20210;-73
2023/08/20 12:57:07;;;;;;;15.77;11.73;;;;;;;;;;4926088;29;20773;-74
2023/08/20 12:59:34;;;;;;;13.90;11.07;;;;;;;;;;4929729;29;20229;-73
2023/08/20 13:02:19;;;;;;;12.13;10.13;;;;;;;;;;4913263;29;20824;-73
2023/08/20 13:04:47;;;;;;;10.43;9.43;;;;;;;;;;4929995;29;20226;-73
2023/08/20 13:07:16;;;;;;;10.17;9.17;;;;;;;;;;4933841;29;20198;-73
2023/08/20 13:09:43;;;;;;;11.50;9.20;;;;;;;;;;4936130;29;20668;-76
2023/08/20 13:12:12;;;;;;;10.13;9.13;;;;;;;;;;4930608;29;20664;-73
2023/08/20 13:14:40;;;;;;;10.53;9.00;;;;;;;;;;4932041;29;20217;-75
2023/08/20 13:17:08;;;;;;;10.30;9.30;;;;;;;;;;4935621;29;20228;-75
2023/08/20 13:19:35;;;;;;;12.30;9.10;;;;;;;;;;4928907;29;20221;-76
2023/08/20 13:22:03;;;;;;;9.50;8.53;;;;;;;;;;4927245;29;20417;-75
2023/08/20 13:24:30;;;;;;;11.23;9.13;;;;;;;;;;4929375;29;20228;-72
2023/08/20 13:26:57;;;;;;;10.40;9.10;;;;;;;;;;4940083;29;20197;-74
2023/08/20 13:29:24;;;;;;;9.67;8.33;;;;;;;;;;4941632;29;20198;-74
2023/08/20 13:31:52;;;;;;;9.30;8.50;;;;;;;;;;4946557;29;20250;-73
2023/08/20 13:34:19;;;;;;;9.47;8.60;;;;;;;;;;4935085;29;20293;-71
2023/08/20 13:36:47;;;;;;;9.17;8.27;;;;;;;;;;4940115;29;20871;-72
2023/08/20 13:39:14;;;;;;;9.10;8.20;;;;;;;;;;4930337;29;20201;-71
2023/08/20 13:41:41;;;;;;;9.37;8.47;;;;;;;;;;4946100;29;20284;-73
2023/08/20 13:44:08;;;;;;;9.13;8.23;;;;;;;;;;4936683;29;20276;-72
2023/08/20 13:46:35;;;;;;;9.30;8.30;;;;;;;;;;4937576;28;20237;-73
2023/08/20 13:49:03;;;;;;;9.00;8.30;;;;;;;;;;4919172;29;20198;-71
2023/08/20 13:51:31;;;;;;;9.23;8.33;;;;;;;;;;4947886;28;20208;-73
2023/08/20 13:53:58;;;;;;;8.90;8.10;;;;;;;;;;4925335;29;20280;-72
2023/08/20 13:56:25;;;;;;;9.23;8.47;;;;;;;;;;4915252;29;20183;-73
2023/08/20 13:58:52;;;;;;;9.07;8.27;;;;;;;;;;4913446;29;20237;-73
2023/08/20 14:01:20;;;;;;;9.57;8.60;;;;;;;;;;4946328;28;20186;-73
2023/08/20 14:03:47;;;;;;;8.90;8.10;;;;;;;;;;4933685;28;20290;-73
2023/08/20 14:06:14;;;;;;;8.97;7.73;;;;;;;;;;4924381;29;20190;-73
2023/08/20 14:08:41;;;;;;;9.33;8.30;;;;;;;;;;4940844;29;20214;-76
2023/08/20 14:11:08;;;;;;;8.90;8.10;;;;;;;;;;4927130;29;20230;-76
2023/08/20 14:13:35;;;;;;;8.83;8.03;;;;;;;;;;4920104;29;20255;-75
2023/08/20 14:16:02;;;;;;;9.60;8.60;;;;;;;;;;4926803;29;20599;-72
2023/08/20 14:18:29;;;;;;;9.17;8.27;;;;;;;;;;4927159;29;20282;-71
2023/08/20 14:20:56;;;;;;;9.83;8.90;;;;;;;;;;4926407;29;20274;-73
2023/08/20 14:23:23;;;;;;;9.13;8.37;;;;;;;;;;4925617;29;20290;-72
2023/08/20 14:25:50;;;;;;;9.70;8.83;;;;;;;;;;4930214;29;20194;-72
2023/08/20 14:28:16;;;;;;;9.73;8.77;;;;;;;;;;4920481;29;20198;-72
2023/08/20 14:30:44;;;;;;;9.50;8.70;;;;;;;;;;4931278;29;20562;-72
2023/08/20 14:33:11;;;;;;;10.27;9.30;;;;;;;;;;4931263;29;20229;-72
2023/08/20 14:35:39;;;;;;;9.90;8.90;;;;;;;;;;4931214;29;20277;-72
2023/08/20 14:38:10;;;;;;;9.77;8.77;;;;;;;;;;4928560;29;20710;-71
2023/08/20 14:40:39;;;;;;;10.13;9.10;;;;;;;;;;4931071;29;20201;-73
2023/08/20 14:43:07;;;;;;;10.00;9.20;;;;;;;;;;4930260;29;20245;-72
2023/08/20 14:45:34;;;;;;;11.40;9.50;;;;;;;;;;4930019;29;20206;-72
2023/08/20 14:48:02;;;;;;;10.80;9.70;;;;;;;;;;4930779;29;20278;-73
2023/08/20 14:50:30;;;;;;;9.70;8.80;;;;;;;;;;4928825;29;20267;-72
2023/08/20 14:52:57;;;;;;;10.57;9.67;;;;;;;;;;4929801;29;20547;-72
2023/08/20 14:55:25;;;;;;;11.20;10.03;;;;;;;;;;4930138;29;20283;-72
2023/08/20 14:57:52;;;;;;;9.97;9.17;;;;;;;;;;4930369;29;20188;-72
2023/08/20 15:00:22;;;;;;;11.27;10.17;;;;;;;;;;4931868;29;20199;-72
2023/08/20 15:02:49;;;;;;;9.60;8.60;;;;;;;;;;4918887;29;20674;-71
2023/08/20 15:05:33;;;;;;;10.00;9.03;;;;;;;;;;4929981;29;20175;-72
2023/08/20 15:07:59;;;;;;;9.70;8.90;;;;;;;;;;4931516;29;20305;-72
2023/08/20 15:10:45;;;;;;;9.83;9.03;;;;;;;;;;4912394;29;20184;-73